Time;durP1;ratioP1;P1;durP2;ratioP2;P2;SDS_P1;SDS_P2;PMS_P1;PMS_P2;Temp;Humidity;BMP_temperature;BMP_pressure;BME280_temperature;BME280_humidity;BME280_pressure;Samples;Min_cycle;Max_cycle;Signal;HPM_P1;HPM_P2
2022/12/31 00:02:14;;;;;;;3.07;2.70;;;;;;;;;;4972968;28;20926;-87
2022/12/31 00:04:40;;;;;;;3.70;2.80;;;;;;;;;;4937956;28;20207;-88
2022/12/31 00:07:06;;;;;;;5.77;2.97;;;;;;;;;;4956246;28;20436;-88
2022/12/31 00:09:32;;;;;;;4.53;2.20;;;;;;;;;;4973878;28;20186;-89
2022/12/31 00:11:58;;;;;;;4.10;2.97;;;;;;;;;;4957408;28;20432;-88
2022/12/31 00:14:24;;;;;;;3.90;2.80;;;;;;;;;;4953606;29;20459;-88
2022/12/31 00:16:49;;;;;;;4.13;2.57;;;;;;;;;;4953349;29;20479;-88
2022/12/31 00:19:15;;;;;;;4.60;3.30;;;;;;;;;;4953660;29;20941;-90
2022/12/31 00:21:42;;;;;;;2.67;2.17;;;;;;;;;;4953795;29;20910;-90
2022/12/31 00:24:10;;;;;;;2.80;2.20;;;;;;;;;;4955058;29;20588;-90
2022/12/31 00:26:36;;;;;;;4.03;3.27;;;;;;;;;;4954633;29;20415;-88
2022/12/31 00:29:03;;;;;;;3.90;2.07;;;;;;;;;;4953662;29;20491;-89
2022/12/31 00:31:30;;;;;;;3.17;2.40;;;;;;;;;;4953936;29;20474;-90
2022/12/31 00:33:56;;;;;;;4.50;2.70;;;;;;;;;;4953704;29;20441;-90
2022/12/31 00:36:23;;;;;;;3.63;2.70;;;;;;;;;;4955457;28;20429;-91
2022/12/31 00:38:50;;;;;;;4.77;2.80;;;;;;;;;;4959513;28;20426;-87
2022/12/31 00:41:17;;;;;;;5.17;3.50;;;;;;;;;;4960110;28;20417;-89
2022/12/31 00:43:43;;;;;;;5.10;3.30;;;;;;;;;;4956580;29;20514;-91
2022/12/31 00:46:10;;;;;;;3.60;2.57;;;;;;;;;;4957480;29;20430;-92
2022/12/31 00:48:36;;;;;;;3.97;2.87;;;;;;;;;;4957407;29;20427;-92
2022/12/31 00:51:03;;;;;;;3.00;2.23;;;;;;;;;;4957120;29;20422;-91
2022/12/31 00:53:29;;;;;;;2.93;2.23;;;;;;;;;;4956747;28;20468;-87
2022/12/31 00:55:59;;;;;;;2.47;1.83;;;;;;;;;;4956897;29;20873;-89
2022/12/31 00:58:28;;;;;;;3.33;2.67;;;;;;;;;;4958009;29;20455;-88
2022/12/31 01:00:54;;;;;;;3.07;2.00;;;;;;;;;;4958207;29;20779;-92
2022/12/31 01:03:20;;;;;;;4.17;2.40;;;;;;;;;;4957368;29;20421;-88
2022/12/31 01:05:46;;;;;;;3.13;2.50;;;;;;;;;;4956734;29;20517;-88
2022/12/31 01:08:12;;;;;;;2.90;1.80;;;;;;;;;;4959319;28;20186;-90
2022/12/31 01:13:42;;;;;;;2.47;1.30;;;;;;;;;;4912257;29;20433;-90
2022/12/31 01:16:09;;;;;;;3.03;1.67;;;;;;;;;;4899247;29;20436;-90
2022/12/31 01:18:35;;;;;;;2.73;1.80;;;;;;;;;;4935779;28;20431;-91
2022/12/31 01:21:02;;;;;;;3.10;1.60;;;;;;;;;;4960485;28;21037;-90
2022/12/31 01:23:29;;;;;;;2.97;1.73;;;;;;;;;;4963494;28;20450;-90
2022/12/31 01:25:55;;;;;;;2.40;2.20;;;;;;;;;;4983777;28;20537;-91
2022/12/31 01:28:21;;;;;;;3.43;1.77;;;;;;;;;;4960055;28;20845;-90
2022/12/31 01:30:47;;;;;;;3.20;2.10;;;;;;;;;;4960083;28;20455;-91
2022/12/31 01:33:13;;;;;;;2.20;1.37;;;;;;;;;;4960149;28;20263;-90
2022/12/31 01:35:38;;;;;;;2.00;1.20;;;;;;;;;;4976964;28;20828;-88
2022/12/31 01:38:04;;;;;;;2.10;1.43;;;;;;;;;;4959206;28;20515;-88
2022/12/31 01:40:30;;;;;;;3.30;1.93;;;;;;;;;;4959352;28;20182;-89
2022/12/31 01:42:57;;;;;;;3.20;2.03;;;;;;;;;;4959987;28;20485;-91
2022/12/31 01:45:23;;;;;;;3.50;1.53;;;;;;;;;;4958876;28;20486;-88
2022/12/31 01:47:56;;;;;;;5.77;2.23;;;;;;;;;;4959282;28;20416;-94
2022/12/31 01:50:24;;;;;;;5.03;1.93;;;;;;;;;;4959845;28;20454;-91
2022/12/31 01:52:51;;;;;;;2.70;2.10;;;;;;;;;;4958991;28;20426;-90
2022/12/31 01:55:27;;;;;;;3.33;2.10;;;;;;;;;;4959309;28;20565;-89
2022/12/31 01:57:56;;;;;;;3.23;1.70;;;;;;;;;;4959528;28;20429;-90
2022/12/31 02:00:22;;;;;;;4.00;1.60;;;;;;;;;;4959328;28;20896;-89
2022/12/31 02:02:50;;;;;;;3.17;1.63;;;;;;;;;;4952980;28;20466;-89
2022/12/31 02:05:23;;;;;;;4.70;1.73;;;;;;;;;;4949665;28;20997;-88
2022/12/31 02:07:49;;;;;;;4.47;1.93;;;;;;;;;;4995398;28;20878;-88
2022/12/31 02:10:15;;;;;;;2.87;1.57;;;;;;;;;;4978280;28;20545;-90
2022/12/31 02:12:41;;;;;;;4.63;1.97;;;;;;;;;;4978199;28;20438;-88
2022/12/31 02:15:07;;;;;;;4.30;1.57;;;;;;;;;;4978122;28;20429;-90
2022/12/31 02:17:46;;;;;;;2.50;1.57;;;;;;;;;;4978439;28;20425;-90
2022/12/31 02:20:26;;;;;;;2.47;1.90;;;;;;;;;;4995754;28;20411;-90
2022/12/31 02:23:07;;;;;;;2.57;1.50;;;;;;;;;;4977819;28;20414;-90
2022/12/31 02:25:52;;;;;;;3.60;1.27;;;;;;;;;;4995721;28;20909;-92
2022/12/31 02:28:37;;;;;;;3.00;1.27;;;;;;;;;;4978486;28;20405;-91
2022/12/31 02:31:09;;;;;;;2.00;1.70;;;;;;;;;;4978338;28;20422;-90
2022/12/31 02:33:37;;;;;;;2.47;1.70;;;;;;;;;;4995587;28;20415;-91
2022/12/31 02:36:12;;;;;;;4.17;1.57;;;;;;;;;;4978031;28;20422;-90
2022/12/31 02:38:43;;;;;;;2.80;1.97;;;;;;;;;;4978397;28;20424;-90
2022/12/31 02:44:02;;;;;;;4.03;2.60;;;;;;;;;;4995394;28;20464;-90
2022/12/31 02:46:35;;;;;;;3.80;3.00;;;;;;;;;;4977875;28;20437;-90
2022/12/31 02:49:06;;;;;;;3.80;2.87;;;;;;;;;;4977936;28;20406;-90
2022/12/31 02:51:41;;;;;;;4.80;2.80;;;;;;;;;;4978946;28;20421;-90
2022/12/31 02:54:11;;;;;;;4.33;2.77;;;;;;;;;;4997801;28;20520;-89
2022/12/31 02:56:41;;;;;;;5.80;2.83;;;;;;;;;;4977645;28;20762;-90
2022/12/31 03:02:14;;;;;;;3.90;2.70;;;;;;;;;;4995177;28;20405;-91
2022/12/31 03:04:46;;;;;;;6.93;3.40;;;;;;;;;;4994819;28;20465;-89
2022/12/31 03:07:13;;;;;;;3.10;2.30;;;;;;;;;;4977301;28;20424;-90
2022/12/31 03:09:39;;;;;;;3.13;2.60;;;;;;;;;;4977499;28;20474;-90
2022/12/31 03:14:51;;;;;;;4.53;2.53;;;;;;;;;;4994957;28;20518;-90
2022/12/31 03:17:23;;;;;;;3.80;2.77;;;;;;;;;;4977331;28;20912;-90
2022/12/31 03:22:35;;;;;;;3.17;2.33;;;;;;;;;;4994719;28;20393;-90
2022/12/31 03:27:47;;;;;;;4.53;3.00;;;;;;;;;;4995132;28;20410;-90
2022/12/31 03:30:14;;;;;;;5.53;3.03;;;;;;;;;;4977288;28;20421;-90
2022/12/31 03:32:40;;;;;;;4.10;2.50;;;;;;;;;;4994545;28;20411;-88
2022/12/31 03:35:07;;;;;;;4.30;2.60;;;;;;;;;;4994323;28;20410;-90
2022/12/31 03:37:33;;;;;;;5.07;2.17;;;;;;;;;;4976525;28;20831;-90
2022/12/31 03:39:58;;;;;;;4.00;2.50;;;;;;;;;;4977165;28;20429;-88
2022/12/31 03:42:24;;;;;;;3.60;1.80;;;;;;;;;;4976926;28;20202;-89
2022/12/31 03:44:50;;;;;;;4.10;2.00;;;;;;;;;;4977111;28;21207;-89
2022/12/31 03:47:16;;;;;;;3.90;1.60;;;;;;;;;;4977308;28;20469;-89
2022/12/31 03:49:42;;;;;;;2.37;1.97;;;;;;;;;;4994301;28;20190;-89
2022/12/31 03:52:08;;;;;;;2.50;1.47;;;;;;;;;;4976670;28;20554;-89
2022/12/31 03:54:34;;;;;;;3.30;2.17;;;;;;;;;;4994195;28;20554;-90
2022/12/31 03:57:00;;;;;;;2.10;1.40;;;;;;;;;;4977042;28;20416;-90
2022/12/31 03:59:26;;;;;;;2.23;2.00;;;;;;;;;;4976845;28;20434;-89
2022/12/31 04:01:52;;;;;;;3.50;2.50;;;;;;;;;;4976870;28;20185;-90
2022/12/31 04:04:17;;;;;;;4.17;2.33;;;;;;;;;;4976664;28;20220;-89
2022/12/31 04:06:43;;;;;;;3.23;2.47;;;;;;;;;;4993997;28;20405;-90
2022/12/31 04:09:09;;;;;;;5.13;1.57;;;;;;;;;;4994372;28;20172;-89
2022/12/31 04:11:35;;;;;;;2.20;1.90;;;;;;;;;;4980570;28;20434;-91
2022/12/31 04:14:01;;;;;;;3.43;2.23;;;;;;;;;;4998019;28;20419;-90
2022/12/31 04:16:27;;;;;;;4.10;1.87;;;;;;;;;;4998223;28;20413;-91
2022/12/31 04:18:53;;;;;;;2.77;1.63;;;;;;;;;;4980822;28;20911;-90
2022/12/31 04:21:19;;;;;;;2.90;2.10;;;;;;;;;;5000750;28;20167;-90
2022/12/31 04:23:45;;;;;;;3.67;1.20;;;;;;;;;;4998594;28;20212;-90
2022/12/31 04:26:11;;;;;;;3.50;1.10;;;;;;;;;;4980572;28;20438;-90
2022/12/31 04:28:36;;;;;;;3.40;1.37;;;;;;;;;;4980341;28;20535;-89
2022/12/31 04:31:03;;;;;;;2.70;1.63;;;;;;;;;;4980682;28;20181;-92
2022/12/31 04:33:29;;;;;;;3.97;1.80;;;;;;;;;;4998007;28;20833;-91
2022/12/31 04:36:02;;;;;;;1.40;0.83;;;;;;;;;;4980237;28;20451;-91
2022/12/31 04:38:29;;;;;;;2.83;1.07;;;;;;;;;;4980599;28;20429;-89
2022/12/31 04:43:40;;;;;;;5.40;1.10;;;;;;;;;;4997253;28;20420;-88
2022/12/31 04:46:06;;;;;;;4.70;1.90;;;;;;;;;;4997123;28;20423;-89
2022/12/31 04:48:32;;;;;;;3.10;1.77;;;;;;;;;;4997047;28;20407;-89
2022/12/31 04:50:58;;;;;;;3.97;2.10;;;;;;;;;;4996615;28;20470;-90
2022/12/31 04:53:25;;;;;;;2.77;1.80;;;;;;;;;;4979625;28;20466;-89
2022/12/31 04:55:51;;;;;;;2.23;1.73;;;;;;;;;;4997012;28;20174;-89
2022/12/31 04:58:17;;;;;;;3.10;1.60;;;;;;;;;;4996821;28;20403;-89
2022/12/31 05:00:44;;;;;;;2.97;1.67;;;;;;;;;;4979590;28;20946;-89
2022/12/31 05:03:10;;;;;;;2.80;1.23;;;;;;;;;;4979641;28;20407;-89
2022/12/31 05:05:41;;;;;;;2.40;1.40;;;;;;;;;;4996451;28;20561;-89
2022/12/31 05:08:07;;;;;;;3.60;1.90;;;;;;;;;;4979309;28;20826;-90
2022/12/31 05:10:33;;;;;;;2.33;1.97;;;;;;;;;;4979251;28;20507;-89
2022/12/31 05:12:59;;;;;;;2.63;1.70;;;;;;;;;;4979235;28;20418;-88
2022/12/31 05:15:25;;;;;;;2.83;1.60;;;;;;;;;;4996795;28;20211;-89
2022/12/31 05:17:51;;;;;;;2.70;1.60;;;;;;;;;;4978828;28;20712;-88
2022/12/31 05:20:17;;;;;;;2.30;1.20;;;;;;;;;;4996227;28;20182;-88
2022/12/31 05:22:42;;;;;;;2.27;1.30;;;;;;;;;;4977896;28;20528;-88
2022/12/31 05:25:11;;;;;;;2.33;1.30;;;;;;;;;;4978481;28;20481;-88
2022/12/31 05:27:37;;;;;;;2.40;1.53;;;;;;;;;;4995980;28;20408;-88
2022/12/31 05:30:06;;;;;;;1.53;0.93;;;;;;;;;;4978301;28;20420;-87
2022/12/31 05:32:33;;;;;;;2.47;0.60;;;;;;;;;;4978495;28;20419;-88
2022/12/31 05:34:59;;;;;;;2.10;0.83;;;;;;;;;;4995811;28;20777;-88
2022/12/31 05:37:25;;;;;;;1.60;1.23;;;;;;;;;;4995698;28;20410;-88
2022/12/31 05:39:51;;;;;;;2.20;0.60;;;;;;;;;;4978293;28;20412;-90
2022/12/31 05:42:17;;;;;;;1.00;0.50;;;;;;;;;;4996243;28;20429;-89
2022/12/31 05:44:43;;;;;;;3.87;0.80;;;;;;;;;;4978525;28;20461;-88
2022/12/31 05:47:09;;;;;;;1.53;0.83;;;;;;;;;;4978534;28;20977;-89
2022/12/31 05:49:35;;;;;;;1.90;1.00;;;;;;;;;;4980095;28;20932;-88
2022/12/31 05:52:01;;;;;;;1.87;0.70;;;;;;;;;;4978651;28;20940;-89
2022/12/31 05:54:27;;;;;;;2.30;0.97;;;;;;;;;;4995511;28;20464;-89
2022/12/31 05:56:52;;;;;;;1.70;0.70;;;;;;;;;;4965466;28;20422;-88
2022/12/31 05:59:18;;;;;;;1.60;0.40;;;;;;;;;;4969237;28;20422;-89
2022/12/31 06:01:44;;;;;;;3.40;1.03;;;;;;;;;;4995441;28;20879;-88
2022/12/31 06:04:10;;;;;;;1.30;0.33;;;;;;;;;;4977835;28;20612;-86
2022/12/31 06:06:36;;;;;;;1.10;0.40;;;;;;;;;;4994829;28;20885;-88
2022/12/31 06:09:03;;;;;;;1.07;0.67;;;;;;;;;;4977813;28;20418;-89
2022/12/31 06:11:28;;;;;;;0.93;0.40;;;;;;;;;;4995382;28;20175;-88
2022/12/31 06:13:54;;;;;;;1.70;0.40;;;;;;;;;;4995467;28;20941;-89
2022/12/31 06:16:20;;;;;;;1.30;0.43;;;;;;;;;;4978073;28;20183;-89
2022/12/31 06:18:49;;;;;;;1.70;0.60;;;;;;;;;;4995153;28;20453;-87
2022/12/31 06:21:15;;;;;;;1.23;0.40;;;;;;;;;;4994704;28;20418;-87
2022/12/31 06:23:41;;;;;;;1.10;0.60;;;;;;;;;;4994701;28;20965;-87
2022/12/31 06:26:07;;;;;;;1.40;0.37;;;;;;;;;;4994731;28;20473;-87
2022/12/31 06:28:33;;;;;;;1.80;0.80;;;;;;;;;;4977209;28;20172;-87
2022/12/31 06:31:00;;;;;;;0.87;0.33;;;;;;;;;;4994635;28;20452;-86
2022/12/31 06:33:26;;;;;;;0.80;0.20;;;;;;;;;;4993711;28;20915;-87
2022/12/31 06:35:55;;;;;;;1.00;0.30;;;;;;;;;;4976814;28;20425;-87
2022/12/31 06:38:21;;;;;;;0.40;0.20;;;;;;;;;;4994575;28;20414;-86
2022/12/31 06:40:47;;;;;;;0.60;0.20;;;;;;;;;;4994476;28;20767;-87
2022/12/31 06:43:13;;;;;;;2.20;0.30;;;;;;;;;;4994284;28;20418;-86
2022/12/31 06:45:39;;;;;;;0.67;0.40;;;;;;;;;;4994305;28;20483;-87
2022/12/31 06:48:05;;;;;;;2.60;0.20;;;;;;;;;;4994420;28;20410;-85
2022/12/31 06:50:31;;;;;;;0.43;0.20;;;;;;;;;;4993933;28;20462;-86
2022/12/31 06:52:57;;;;;;;0.80;0.30;;;;;;;;;;4994245;28;20438;-86
2022/12/31 06:55:23;;;;;;;0.40;0.10;;;;;;;;;;4994074;28;20497;-86
2022/12/31 06:57:49;;;;;;;0.37;0.20;;;;;;;;;;4994188;28;20914;-86
2022/12/31 07:00:16;;;;;;;0.50;0.20;;;;;;;;;;4976630;28;20427;-87
2022/12/31 07:03:00;;;;;;;0.30;0.30;;;;;;;;;;4954306;28;20438;-86
2022/12/31 07:05:27;;;;;;;0.40;0.20;;;;;;;;;;4993976;28;21367;-89
2022/12/31 07:08:12;;;;;;;1.00;0.30;;;;;;;;;;4994064;28;20412;-86
2022/12/31 07:10:48;;;;;;;0.63;0.20;;;;;;;;;;4994353;28;20402;-88
2022/12/31 07:13:33;;;;;;;0.50;0.20;;;;;;;;;;4994566;28;20421;-90
2022/12/31 07:16:08;;;;;;;0.60;0.20;;;;;;;;;;4977703;28;20459;-90
2022/12/31 07:18:49;;;;;;;0.30;0.20;;;;;;;;;;4980743;28;20425;-89
2022/12/31 07:21:17;;;;;;;0.63;0.20;;;;;;;;;;4976882;28;20427;-89
2022/12/31 07:23:43;;;;;;;1.57;0.20;;;;;;;;;;4994506;28;20415;-88
2022/12/31 07:26:12;;;;;;;0.40;0.20;;;;;;;;;;4976538;28;20473;-87
2022/12/31 07:28:57;;;;;;;0.50;0.10;;;;;;;;;;4976373;28;20446;-87
2022/12/31 07:31:23;;;;;;;7.13;0.40;;;;;;;;;;4994518;28;20421;-88
2022/12/31 07:33:56;;;;;;;0.90;0.20;;;;;;;;;;4977539;28;20422;-86
2022/12/31 07:36:32;;;;;;;0.30;0.20;;;;;;;;;;4993733;28;20781;-90
2022/12/31 07:39:12;;;;;;;0.60;0.20;;;;;;;;;;4994113;28;20414;-89
2022/12/31 07:41:47;;;;;;;0.57;0.30;;;;;;;;;;4976850;28;20416;-88
2022/12/31 07:44:29;;;;;;;0.40;0.20;;;;;;;;;;4994145;28;20460;-88
2022/12/31 07:46:56;;;;;;;0.60;0.20;;;;;;;;;;4962507;28;20436;-88
2022/12/31 07:49:22;;;;;;;0.60;0.20;;;;;;;;;;4961474;28;20966;-88
2022/12/31 07:51:48;;;;;;;1.53;0.20;;;;;;;;;;4978580;28;20432;-90
2022/12/31 07:54:14;;;;;;;0.90;0.20;;;;;;;;;;4960924;28;20470;-87
2022/12/31 07:56:40;;;;;;;0.40;0.20;;;;;;;;;;4960678;28;20510;-86
2022/12/31 07:59:22;;;;;;;0.40;0.10;;;;;;;;;;4960556;28;20419;-88
2022/12/31 08:01:50;;;;;;;0.77;0.40;;;;;;;;;;4960614;28;20516;-87
2022/12/31 08:04:28;;;;;;;0.60;0.20;;;;;;;;;;4977774;28;20470;-85
2022/12/31 08:07:00;;;;;;;0.70;0.20;;;;;;;;;;4937558;28;20499;-86
2022/12/31 08:09:34;;;;;;;1.03;0.20;;;;;;;;;;4977758;28;20491;-87
2022/12/31 08:12:01;;;;;;;1.13;0.30;;;;;;;;;;4960353;28;20420;-86
2022/12/31 08:14:27;;;;;;;0.67;0.10;;;;;;;;;;4977658;28;20413;-86
2022/12/31 08:16:53;;;;;;;2.43;0.40;;;;;;;;;;4960345;28;20426;-86
2022/12/31 08:19:24;;;;;;;0.43;0.20;;;;;;;;;;4977650;28;20417;-88
2022/12/31 08:22:09;;;;;;;0.43;0.20;;;;;;;;;;4977453;28;21014;-88
2022/12/31 08:24:53;;;;;;;0.60;0.20;;;;;;;;;;4960361;28;20467;-88
2022/12/31 08:27:43;;;;;;;0.70;0.20;;;;;;;;;;4960421;28;20411;-88
2022/12/31 08:30:14;;;;;;;1.10;0.30;;;;;;;;;;4977649;28;20429;-88
2022/12/31 08:32:44;;;;;;;0.83;0.30;;;;;;;;;;4960156;28;20906;-87
2022/12/31 08:35:16;;;;;;;1.10;0.30;;;;;;;;;;4977233;28;20424;-88
2022/12/31 08:37:45;;;;;;;0.50;0.20;;;;;;;;;;4977479;28;20418;-89
2022/12/31 08:40:28;;;;;;;0.60;0.20;;;;;;;;;;4977816;28;20418;-89
2022/12/31 08:43:15;;;;;;;0.73;0.20;;;;;;;;;;4977701;28;20410;-88
2022/12/31 08:45:45;;;;;;;0.50;0.20;;;;;;;;;;4978231;28;20572;-89
2022/12/31 08:48:30;;;;;;;0.70;0.20;;;;;;;;;;4978246;28;20412;-86
2022/12/31 08:50:56;;;;;;;0.70;0.20;;;;;;;;;;4976908;28;20411;-86
2022/12/31 08:53:22;;;;;;;0.73;0.20;;;;;;;;;;4976866;28;20493;-87
2022/12/31 08:55:50;;;;;;;1.87;0.43;;;;;;;;;;4959089;28;20791;-87
2022/12/31 08:58:22;;;;;;;0.80;0.40;;;;;;;;;;4976683;28;20415;-87
2022/12/31 09:00:49;;;;;;;0.70;0.30;;;;;;;;;;4976989;28;20921;-86
2022/12/31 09:03:21;;;;;;;0.70;0.23;;;;;;;;;;4959698;28;20427;-88
2022/12/31 09:06:02;;;;;;;1.23;0.33;;;;;;;;;;4976399;28;20483;-86
2022/12/31 09:08:41;;;;;;;1.37;0.20;;;;;;;;;;4937086;28;20439;-86
2022/12/31 09:11:12;;;;;;;0.80;0.20;;;;;;;;;;4976634;28;20504;-86
2022/12/31 09:13:55;;;;;;;0.90;0.30;;;;;;;;;;4976558;28;20902;-86
2022/12/31 09:16:24;;;;;;;0.90;0.30;;;;;;;;;;4976770;28;20558;-87
2022/12/31 09:18:50;;;;;;;1.17;0.30;;;;;;;;;;4976639;28;20472;-87
2022/12/31 09:21:16;;;;;;;1.63;0.33;;;;;;;;;;4958970;28;20494;-86
2022/12/31 09:23:42;;;;;;;2.03;0.37;;;;;;;;;;4959550;28;20426;-86
2022/12/31 09:26:26;;;;;;;1.03;0.70;;;;;;;;;;4959235;28;20827;-87
2022/12/31 09:28:55;;;;;;;3.10;0.50;;;;;;;;;;4959415;28;20792;-89
2022/12/31 09:31:26;;;;;;;0.87;0.20;;;;;;;;;;4959161;28;20913;-88
2022/12/31 09:34:00;;;;;;;1.30;0.30;;;;;;;;;;4976200;28;20823;-87
2022/12/31 09:36:31;;;;;;;0.93;0.20;;;;;;;;;;4958203;28;20507;-88
2022/12/31 09:39:03;;;;;;;1.60;0.33;;;;;;;;;;4976254;28;20427;-88
2022/12/31 09:42:04;;;;;;;1.03;0.20;;;;;;;;;;4958946;28;20912;-87
2022/12/31 09:44:49;;;;;;;0.50;0.20;;;;;;;;;;4916526;29;20481;-87
2022/12/31 09:47:30;;;;;;;0.90;0.20;;;;;;;;;;4984321;28;20411;-87
2022/12/31 09:50:07;;;;;;;2.67;0.20;;;;;;;;;;4995261;28;20464;-87
2022/12/31 09:52:46;;;;;;;0.80;0.20;;;;;;;;;;4978195;28;20769;-87
2022/12/31 09:55:31;;;;;;;0.53;0.20;;;;;;;;;;4977955;28;20471;-88
2022/12/31 09:57:57;;;;;;;0.53;0.20;;;;;;;;;;4995309;28;20923;-88
2022/12/31 10:00:29;;;;;;;0.80;0.20;;;;;;;;;;4995316;28;20460;-87
2022/12/31 10:03:07;;;;;;;1.53;0.33;;;;;;;;;;4995405;28;20418;-87
2022/12/31 10:05:51;;;;;;;0.60;0.20;;;;;;;;;;4977308;28;20470;-88
2022/12/31 10:08:26;;;;;;;1.40;0.20;;;;;;;;;;4974351;28;20434;-89
2022/12/31 10:10:58;;;;;;;1.53;0.27;;;;;;;;;;4935686;28;20448;-87
2022/12/31 10:13:43;;;;;;;1.10;0.20;;;;;;;;;;4960704;28;20419;-87
2022/12/31 10:16:18;;;;;;;0.50;0.20;;;;;;;;;;4975648;28;20451;-87
2022/12/31 10:18:53;;;;;;;0.30;0.20;;;;;;;;;;4958509;28;20418;-87
2022/12/31 10:21:40;;;;;;;0.60;0.20;;;;;;;;;;4953939;29;20424;-88
2022/12/31 10:24:25;;;;;;;0.53;0.23;;;;;;;;;;4955719;29;20408;-87
2022/12/31 10:27:26;;;;;;;0.57;0.20;;;;;;;;;;4956034;29;20420;-87
2022/12/31 10:29:58;;;;;;;0.30;0.20;;;;;;;;;;4915496;29;20936;-87
2022/12/31 10:32:43;;;;;;;0.70;0.20;;;;;;;;;;4947974;29;20516;-87
2022/12/31 10:35:14;;;;;;;0.40;0.20;;;;;;;;;;4953955;29;20936;-87
2022/12/31 10:37:49;;;;;;;0.30;0.20;;;;;;;;;;4971369;28;20416;-87
2022/12/31 10:40:28;;;;;;;0.50;0.20;;;;;;;;;;4957449;28;20426;-88
2022/12/31 10:43:14;;;;;;;0.50;0.20;;;;;;;;;;4953811;29;21050;-88
2022/12/31 10:45:52;;;;;;;0.30;0.30;;;;;;;;;;4953992;29;20500;-87
2022/12/31 10:48:29;;;;;;;0.30;0.20;;;;;;;;;;4955481;29;20747;-87
2022/12/31 10:51:17;;;;;;;0.37;0.20;;;;;;;;;;4954493;29;20479;-87
2022/12/31 10:54:02;;;;;;;0.43;0.20;;;;;;;;;;4954117;28;20467;-86
2022/12/31 10:56:34;;;;;;;0.30;0.20;;;;;;;;;;4953593;29;20415;-87
2022/12/31 10:59:21;;;;;;;0.33;0.20;;;;;;;;;;4953873;29;20452;-85
2022/12/31 11:02:06;;;;;;;0.40;0.20;;;;;;;;;;4955330;29;20893;-87
2022/12/31 11:04:57;;;;;;;0.30;0.20;;;;;;;;;;4953611;29;20478;-86
2022/12/31 11:07:29;;;;;;;0.30;0.20;;;;;;;;;;4953274;29;20461;-86
2022/12/31 11:10:14;;;;;;;0.40;0.20;;;;;;;;;;4953737;29;20464;-86
2022/12/31 11:12:51;;;;;;;0.30;0.20;;;;;;;;;;4952301;29;21052;-86
2022/12/31 11:15:37;;;;;;;0.40;0.20;;;;;;;;;;4952454;29;20433;-88
2022/12/31 11:18:15;;;;;;;0.30;0.13;;;;;;;;;;4947194;29;20424;-87
2022/12/31 11:21:02;;;;;;;0.30;0.20;;;;;;;;;;4953519;28;20510;-87
2022/12/31 11:23:30;;;;;;;0.73;0.20;;;;;;;;;;4954352;29;20440;-87
2022/12/31 11:26:15;;;;;;;0.40;0.20;;;;;;;;;;4952876;29;20484;-86
2022/12/31 11:29:00;;;;;;;1.37;0.20;;;;;;;;;;4953443;29;20458;-87
2022/12/31 11:31:32;;;;;;;1.60;0.20;;;;;;;;;;4952813;29;20417;-87
2022/12/31 11:33:58;;;;;;;0.63;0.20;;;;;;;;;;4953267;29;20453;-87
2022/12/31 11:36:38;;;;;;;0.50;0.10;;;;;;;;;;4959954;28;20462;-87
2022/12/31 11:39:25;;;;;;;0.60;0.20;;;;;;;;;;4956952;28;20424;-87
2022/12/31 11:41:53;;;;;;;1.47;0.20;;;;;;;;;;4958522;28;20420;-86
2022/12/31 11:44:38;;;;;;;0.47;0.20;;;;;;;;;;4974427;28;20451;-87
2022/12/31 11:47:13;;;;;;;0.50;0.20;;;;;;;;;;4973147;28;20422;-86
2022/12/31 11:50:02;;;;;;;0.77;0.23;;;;;;;;;;4954828;28;20519;-87
2022/12/31 11:52:43;;;;;;;0.30;0.20;;;;;;;;;;4973788;28;20421;-87
2022/12/31 11:55:18;;;;;;;0.40;0.20;;;;;;;;;;4956495;28;20466;-87
2022/12/31 11:57:50;;;;;;;1.10;0.20;;;;;;;;;;4955540;28;20441;-86
2022/12/31 12:00:21;;;;;;;0.33;0.10;;;;;;;;;;4956702;28;20755;-87
2022/12/31 12:02:49;;;;;;;0.30;0.10;;;;;;;;;;4956589;28;20451;-88
2022/12/31 12:05:18;;;;;;;0.50;0.20;;;;;;;;;;4956139;28;20475;-86
2022/12/31 12:07:44;;;;;;;1.53;0.20;;;;;;;;;;4955238;28;20560;-86
2022/12/31 12:10:30;;;;;;;0.50;0.20;;;;;;;;;;4956489;28;20459;-85
2022/12/31 12:12:57;;;;;;;0.47;0.20;;;;;;;;;;4973991;28;20456;-86
2022/12/31 12:15:31;;;;;;;0.40;0.20;;;;;;;;;;4956687;28;20427;-86
2022/12/31 12:17:58;;;;;;;1.10;0.20;;;;;;;;;;4956517;28;20434;-86
2022/12/31 12:20:30;;;;;;;0.60;0.30;;;;;;;;;;4956809;28;20801;-87
2022/12/31 12:22:57;;;;;;;0.77;0.20;;;;;;;;;;4956627;28;20413;-87
2022/12/31 12:25:26;;;;;;;0.30;0.20;;;;;;;;;;4956511;28;20473;-87
2022/12/31 12:27:53;;;;;;;0.53;0.20;;;;;;;;;;4956467;28;20412;-86
2022/12/31 12:30:20;;;;;;;0.37;0.20;;;;;;;;;;4956439;28;20516;-87
2022/12/31 12:32:55;;;;;;;0.50;0.20;;;;;;;;;;4959100;28;20499;-87
2022/12/31 12:35:29;;;;;;;1.00;0.40;;;;;;;;;;4959641;28;20535;-87
2022/12/31 12:38:03;;;;;;;0.30;0.20;;;;;;;;;;4959880;28;20813;-86
2022/12/31 12:40:30;;;;;;;1.53;0.73;;;;;;;;;;4977309;28;20425;-86
2022/12/31 12:42:55;;;;;;;0.50;0.20;;;;;;;;;;4977280;28;20764;-87
2022/12/31 12:45:23;;;;;;;0.60;0.20;;;;;;;;;;4977035;28;20484;-86
2022/12/31 12:47:53;;;;;;;0.63;0.20;;;;;;;;;;4959694;28;20426;-86
2022/12/31 12:50:21;;;;;;;0.40;0.20;;;;;;;;;;4959560;28;20769;-86
2022/12/31 12:53:07;;;;;;;0.97;0.20;;;;;;;;;;4959669;28;20459;-87
2022/12/31 12:55:51;;;;;;;0.30;0.20;;;;;;;;;;4959596;28;20432;-87
2022/12/31 12:58:26;;;;;;;0.93;0.20;;;;;;;;;;4977858;28;20797;-90
2022/12/31 13:01:10;;;;;;;1.80;0.20;;;;;;;;;;4973892;28;20420;-87
2022/12/31 13:03:36;;;;;;;0.90;0.80;;;;;;;;;;4977811;28;20432;-83
2022/12/31 13:06:08;;;;;;;0.30;0.20;;;;;;;;;;4976632;28;20587;-84
2022/12/31 13:08:50;;;;;;;0.50;0.20;;;;;;;;;;4979365;23;20488;-88
2022/12/31 13:11:17;;;;;;;0.60;0.20;;;;;;;;;;4959454;28;20502;-90
2022/12/31 13:13:46;;;;;;;1.57;0.20;;;;;;;;;;4976766;28;20900;-92
2022/12/31 13:16:24;;;;;;;0.87;0.20;;;;;;;;;;4960292;28;20416;-89
2022/12/31 13:18:54;;;;;;;0.50;0.20;;;;;;;;;;4959615;28;20436;-88
2022/12/31 13:21:28;;;;;;;1.50;0.20;;;;;;;;;;4961106;28;20462;-90
2022/12/31 13:24:00;;;;;;;1.13;0.20;;;;;;;;;;4959653;28;20468;-85
2022/12/31 13:26:26;;;;;;;0.70;0.20;;;;;;;;;;4958643;28;20443;-89
2022/12/31 13:28:53;;;;;;;0.90;0.20;;;;;;;;;;4959693;28;20433;-89
2022/12/31 13:31:24;;;;;;;0.50;0.20;;;;;;;;;;4976893;28;20938;-91
2022/12/31 13:34:26;;;;;;;0.50;0.20;;;;;;;;;;4959888;28;20424;-93
2022/12/31 13:36:53;;;;;;;0.50;0.20;;;;;;;;;;4904177;29;20435;-86
2022/12/31 13:39:29;;;;;;;2.30;0.20;;;;;;;;;;4965496;28;20463;-92
2022/12/31 13:42:02;;;;;;;0.50;0.20;;;;;;;;;;4958669;28;20450;-92
2022/12/31 13:44:50;;;;;;;0.93;0.30;;;;;;;;;;4961576;28;20467;-90
2022/12/31 13:47:39;;;;;;;0.40;0.10;;;;;;;;;;4977808;28;20837;-91
2022/12/31 13:50:27;;;;;;;0.40;0.20;;;;;;;;;;4969709;28;20761;-89
2022/12/31 13:52:57;;;;;;;0.87;0.20;;;;;;;;;;4981160;28;20413;-89
2022/12/31 13:55:23;;;;;;;2.50;0.20;;;;;;;;;;4965368;28;20427;-90
2022/12/31 13:57:54;;;;;;;0.43;0.20;;;;;;;;;;4984169;28;20407;-89
2022/12/31 14:00:23;;;;;;;0.50;0.20;;;;;;;;;;4982949;28;20470;-87
2022/12/31 14:02:58;;;;;;;0.40;0.10;;;;;;;;;;4965409;28;20830;-87
2022/12/31 14:05:40;;;;;;;1.90;0.57;;;;;;;;;;4976815;28;20476;-89
2022/12/31 14:08:06;;;;;;;1.60;0.30;;;;;;;;;;4958565;28;20499;-88
2022/12/31 14:10:41;;;;;;;1.07;0.40;;;;;;;;;;4976449;28;20420;-88
2022/12/31 14:13:16;;;;;;;0.60;0.20;;;;;;;;;;4976236;28;20411;-90
2022/12/31 14:15:49;;;;;;;0.93;0.20;;;;;;;;;;4974362;28;20470;-89
2022/12/31 14:18:21;;;;;;;0.70;0.30;;;;;;;;;;4957881;28;20424;-87
2022/12/31 14:20:54;;;;;;;0.80;0.20;;;;;;;;;;4957433;28;20419;-88
2022/12/31 14:23:34;;;;;;;1.17;0.23;;;;;;;;;;4957983;28;20422;-88
2022/12/31 14:26:02;;;;;;;0.90;0.30;;;;;;;;;;4975504;28;20496;-87
2022/12/31 14:28:47;;;;;;;0.50;0.20;;;;;;;;;;4957991;28;20785;-87
2022/12/31 14:31:26;;;;;;;0.83;0.20;;;;;;;;;;4975378;28;20417;-87
2022/12/31 14:34:10;;;;;;;0.50;0.20;;;;;;;;;;4957792;28;20811;-87
2022/12/31 14:36:42;;;;;;;0.80;0.33;;;;;;;;;;4975283;28;20420;-88
2022/12/31 14:39:23;;;;;;;0.93;0.20;;;;;;;;;;4975122;28;20429;-86
2022/12/31 14:42:12;;;;;;;0.67;0.20;;;;;;;;;;4975366;28;20420;-87
2022/12/31 14:44:45;;;;;;;1.43;0.30;;;;;;;;;;4974862;28;20473;-87
2022/12/31 14:47:25;;;;;;;1.10;0.20;;;;;;;;;;4974792;28;20465;-87
2022/12/31 14:50:04;;;;;;;1.37;0.40;;;;;;;;;;4957159;28;20907;-87
2022/12/31 14:52:34;;;;;;;4.50;2.97;;;;;;;;;;4957516;28;20420;-87
2022/12/31 14:55:02;;;;;;;1.83;0.43;;;;;;;;;;4973559;28;20496;-87
2022/12/31 14:57:37;;;;;;;1.27;0.47;;;;;;;;;;4957536;28;20423;-88
2022/12/31 15:00:21;;;;;;;0.90;0.20;;;;;;;;;;4974946;28;20751;-88
2022/12/31 15:02:48;;;;;;;1.43;0.40;;;;;;;;;;4957491;28;20427;-86
2022/12/31 15:05:16;;;;;;;0.80;0.30;;;;;;;;;;4974218;28;20566;-87
2022/12/31 15:07:48;;;;;;;0.90;0.40;;;;;;;;;;4957267;28;20522;-86
2022/12/31 15:10:23;;;;;;;3.03;0.63;;;;;;;;;;4957309;28;20505;-87
2022/12/31 15:12:55;;;;;;;0.60;0.20;;;;;;;;;;4974728;28;20424;-84
2022/12/31 15:15:24;;;;;;;2.47;0.53;;;;;;;;;;4974467;28;20596;-88
2022/12/31 15:17:57;;;;;;;1.70;0.27;;;;;;;;;;4977754;28;20419;-84
2022/12/31 15:20:39;;;;;;;0.90;0.20;;;;;;;;;;4974387;28;20416;-83
2022/12/31 15:23:12;;;;;;;0.50;0.20;;;;;;;;;;4974573;28;20818;-86
2022/12/31 15:25:39;;;;;;;1.10;0.20;;;;;;;;;;4956995;28;20574;-84
2022/12/31 15:28:06;;;;;;;3.03;0.23;;;;;;;;;;4974490;28;20410;-83
2022/12/31 15:30:38;;;;;;;1.40;0.20;;;;;;;;;;4956976;28;20988;-84